Time;durP1;ratioP1;P1;durP2;ratioP2;P2;SDS_P1;SDS_P2;PMS_P1;PMS_P2;Temp;Humidity;BMP_temperature;BMP_pressure;BME280_temperature;BME280_humidity;BME280_pressure;Samples;Min_cycle;Max_cycle;Signal;HPM_P1;HPM_P2
2022/02/22 05:00:50;;;;;;;7.38;2.70;;;4.80;99.90;;;;;;5714785;23;20233;-67
2022/02/22 05:03:17;;;;;;;8.95;2.40;;;4.80;99.90;;;;;;4941130;28;20222;-68
2022/02/22 05:05:44;;;;;;;16.10;3.50;;;4.80;99.90;;;;;;4934747;29;20214;-67
2022/02/22 05:08:11;;;;;;;13.30;2.95;;;4.80;99.90;;;;;;4947106;28;20213;-69
2022/02/22 05:10:38;;;;;;;6.78;2.50;;;4.80;99.90;;;;;;4934384;28;20300;-68
2022/02/22 05:13:04;;;;;;;8.05;2.28;;;4.90;99.90;;;;;;4948661;28;20634;-71
2022/02/22 05:15:32;;;;;;;4.93;2.47;;;4.90;99.90;;;;;;4951495;28;21006;-68
2022/02/22 05:18:01;;;;;;;9.27;2.10;;;4.90;99.90;;;;;;4957590;28;20335;-68
2022/02/22 05:20:28;;;;;;;10.05;3.03;;;4.90;99.90;;;;;;4952854;28;20268;-68
2022/02/22 05:22:55;;;;;;;10.93;2.17;;;4.90;99.90;;;;;;4947556;28;20216;-68
2022/02/22 05:25:22;;;;;;;16.50;2.63;;;4.90;99.90;;;;;;4953253;28;20263;-68
2022/02/22 05:27:48;;;;;;;4.55;1.65;;;4.90;99.90;;;;;;4956639;28;20842;-68
2022/02/22 05:30:17;;;;;;;7.25;2.95;;;4.90;99.90;;;;;;4952814;28;20209;-68
2022/02/22 05:32:45;;;;;;;9.77;2.00;;;4.90;99.90;;;;;;4953142;28;20670;-68
2022/02/22 05:35:14;;;;;;;11.38;2.03;;;5.00;99.90;;;;;;4953191;28;20217;-68
2022/02/22 05:37:41;;;;;;;3.70;1.75;;;5.00;99.90;;;;;;4940098;28;20952;-68
2022/02/22 05:40:08;;;;;;;14.43;2.10;;;5.00;99.90;;;;;;4933775;29;20345;-67
2022/02/22 05:42:35;;;;;;;4.82;1.95;;;5.00;99.90;;;;;;4948018;28;20205;-68
2022/02/22 05:45:02;;;;;;;8.45;1.90;;;5.00;99.90;;;;;;4945300;28;20288;-68
2022/02/22 05:47:29;;;;;;;6.78;2.38;;;5.00;99.90;;;;;;4951386;28;20198;-68
2022/02/22 05:49:55;;;;;;;7.47;3.05;;;5.00;99.90;;;;;;4953122;28;20204;-68
2022/02/22 05:52:23;;;;;;;7.55;1.80;;;5.00;99.90;;;;;;4943314;28;20281;-68
2022/02/22 05:54:50;;;;;;;6.55;2.08;;;5.00;99.90;;;;;;4952784;28;20208;-68
2022/02/22 05:57:17;;;;;;;8.38;2.15;;;5.10;99.90;;;;;;4962570;28;20708;-68
2022/02/22 05:59:43;;;;;;;8.13;2.45;;;5.10;99.90;;;;;;4942148;28;20209;-67
2022/02/22 06:02:10;;;;;;;7.35;2.33;;;5.10;99.90;;;;;;4951795;28;20276;-67
2022/02/22 06:04:37;;;;;;;8.30;2.08;;;5.10;99.90;;;;;;4951192;28;20236;-68
2022/02/22 06:07:04;;;;;;;20.60;4.10;;;5.00;99.90;;;;;;4958434;28;20276;-67
2022/02/22 06:09:32;;;;;;;8.20;2.05;;;5.00;99.90;;;;;;4940049;28;20218;-66
2022/02/22 06:11:59;;;;;;;7.15;1.80;;;5.00;99.90;;;;;;4946336;29;20270;-66
2022/02/22 06:14:25;;;;;;;10.88;3.00;;;5.00;99.90;;;;;;4944721;28;20252;-67
2022/02/22 06:16:53;;;;;;;12.05;2.85;;;5.00;99.90;;;;;;4947746;29;20209;-67
2022/02/22 06:19:20;;;;;;;10.93;2.97;;;4.90;99.90;;;;;;4950381;28;20253;-66
2022/02/22 06:21:47;;;;;;;6.68;1.50;;;4.80;99.90;;;;;;4950129;28;20232;-67
2022/02/22 06:24:14;;;;;;;5.13;2.25;;;4.70;99.90;;;;;;4937269;28;20686;-67
2022/02/22 06:26:41;;;;;;;10.05;1.65;;;4.60;99.90;;;;;;4950946;28;20220;-67
2022/02/22 06:29:09;;;;;;;4.88;4.00;;;4.50;99.90;;;;;;4950023;28;20284;-67
2022/02/22 06:31:35;;;;;;;11.00;2.67;;;4.40;99.90;;;;;;4949186;28;20690;-67
2022/02/22 06:34:04;;;;;;;5.65;3.22;;;4.30;99.90;;;;;;4939337;28;20261;-67
2022/02/22 06:36:31;;;;;;;8.00;2.42;;;4.30;99.90;;;;;;4961144;28;20275;-66
2022/02/22 06:38:58;;;;;;;3.90;2.17;;;4.30;99.90;;;;;;4964786;28;20275;-67
2022/02/22 06:41:24;;;;;;;14.07;2.25;;;4.30;99.90;;;;;;4956037;28;20284;-67
2022/02/22 06:43:52;;;;;;;11.75;3.63;;;4.20;99.90;;;;;;4963790;28;20208;-67
2022/02/22 06:46:19;;;;;;;8.75;1.92;;;4.30;99.90;;;;;;4971129;28;20204;-66
2022/02/22 06:48:45;;;;;;;5.35;2.45;;;4.30;99.90;;;;;;4952678;28;20217;-67
2022/02/22 06:51:12;;;;;;;7.32;2.40;;;4.30;99.90;;;;;;4951961;28;20229;-67
2022/02/22 06:53:39;;;;;;;7.03;2.40;;;4.30;99.90;;;;;;4960890;28;20212;-67
2022/02/22 06:56:07;;;;;;;15.73;2.42;;;4.30;99.90;;;;;;4971737;28;20356;-67
2022/02/22 06:58:35;;;;;;;13.98;4.18;;;4.30;99.90;;;;;;4957004;28;20229;-67
2022/02/22 07:01:02;;;;;;;8.73;2.10;;;4.40;99.90;;;;;;4950084;28;20284;-67
2022/02/22 07:03:29;;;;;;;15.48;3.72;;;4.40;99.90;;;;;;4952629;28;20211;-67
2022/02/22 07:05:56;;;;;;;11.57;3.15;;;4.50;99.90;;;;;;4951986;28;20267;-67
2022/02/22 07:08:22;;;;;;;10.52;3.88;;;4.50;99.90;;;;;;4956322;28;20215;-66
2022/02/22 07:10:49;;;;;;;12.02;2.63;;;4.50;99.90;;;;;;4947550;29;20570;-67
2022/02/22 07:13:17;;;;;;;9.00;2.75;;;4.50;99.90;;;;;;4953925;28;20232;-67
2022/02/22 07:15:45;;;;;;;11.93;3.03;;;4.60;99.90;;;;;;4960774;28;20305;-67
2022/02/22 07:18:13;;;;;;;17.58;3.90;;;4.70;99.90;;;;;;4965453;28;20240;-67
2022/02/22 07:20:40;;;;;;;17.00;3.45;;;4.70;99.90;;;;;;4951969;28;20373;-67
2022/02/22 07:23:07;;;;;;;10.68;3.45;;;4.70;99.90;;;;;;4967662;28;20654;-67
2022/02/22 07:25:34;;;;;;;17.15;6.65;;;4.70;99.90;;;;;;4966050;28;20788;-67
2022/02/22 07:28:03;;;;;;;17.17;4.00;;;4.80;99.90;;;;;;4956372;28;20256;-68
2022/02/22 07:30:30;;;;;;;15.30;3.75;;;4.80;99.90;;;;;;4953430;28;20641;-66
2022/02/22 07:33:00;;;;;;;17.50;4.15;;;4.90;99.90;;;;;;4954585;28;20205;-67
2022/02/22 07:35:27;;;;;;;19.05;2.53;;;4.90;99.90;;;;;;4955843;28;20254;-67
2022/02/22 07:37:54;;;;;;;2.95;1.52;;;4.90;99.90;;;;;;4955439;28;20221;-66
2022/02/22 07:40:22;;;;;;;8.20;3.05;;;5.00;99.90;;;;;;4959258;28;20252;-67
2022/02/22 07:42:49;;;;;;;6.07;2.33;;;5.00;99.90;;;;;;4954694;28;20304;-67
2022/02/22 07:45:16;;;;;;;7.43;2.97;;;5.10;99.90;;;;;;4959480;28;20209;-66
2022/02/22 07:47:43;;;;;;;8.73;2.65;;;5.10;99.90;;;;;;4954658;28;20234;-67
2022/02/22 07:50:12;;;;;;;14.63;4.88;;;5.20;99.90;;;;;;4948273;28;20645;-66
2022/02/22 07:52:38;;;;;;;10.32;2.78;;;5.20;99.90;;;;;;4952978;28;20271;-67
2022/02/22 07:55:07;;;;;;;8.20;2.95;;;5.30;99.90;;;;;;4966477;28;20205;-67
2022/02/22 07:57:33;;;;;;;6.28;1.60;;;5.30;99.90;;;;;;4974275;28;20220;-68
2022/02/22 08:00:00;;;;;;;9.57;3.22;;;5.30;99.90;;;;;;4965719;28;20208;-66
2022/02/22 08:02:27;;;;;;;12.98;1.90;;;5.40;99.90;;;;;;4959417;28;20236;-67
2022/02/22 08:04:53;;;;;;;10.07;2.38;;;5.50;99.90;;;;;;4947902;28;20205;-67
2022/02/22 08:07:21;;;;;;;7.53;2.25;;;5.50;99.90;;;;;;4954945;28;20209;-67
2022/02/22 08:09:48;;;;;;;6.90;2.90;;;5.60;99.90;;;;;;4955040;28;20209;-67
2022/02/22 08:12:15;;;;;;;7.40;2.55;;;5.60;99.90;;;;;;4962062;28;20236;-67
2022/02/22 08:14:42;;;;;;;11.90;2.70;;;5.70;99.90;;;;;;4945064;28;20469;-69
2022/02/22 08:17:09;;;;;;;8.48;3.47;;;5.70;99.90;;;;;;4935450;28;20817;-66
2022/02/22 08:19:35;;;;;;;7.30;2.50;;;5.80;99.90;;;;;;4943465;29;20277;-67
2022/02/22 08:22:02;;;;;;;4.55;2.72;;;5.80;99.90;;;;;;4947117;28;20222;-67
2022/02/22 08:24:30;;;;;;;7.65;2.33;;;5.90;99.90;;;;;;4953906;28;20252;-67
2022/02/22 08:26:59;;;;;;;14.70;3.60;;;5.90;99.90;;;;;;4953301;28;20205;-66
2022/02/22 08:29:26;;;;;;;14.13;3.30;;;5.90;99.90;;;;;;4934952;29;20209;-67
2022/02/22 08:31:53;;;;;;;4.18;2.55;;;5.90;99.90;;;;;;4941113;29;20628;-66
2022/02/22 08:34:20;;;;;;;3.60;2.05;;;6.00;99.90;;;;;;4954409;28;20678;-67
2022/02/22 08:36:47;;;;;;;7.55;2.42;;;6.00;99.90;;;;;;4947787;28;20205;-67
2022/02/22 08:39:14;;;;;;;8.60;2.70;;;6.00;99.90;;;;;;4954242;28;20264;-67
2022/02/22 08:41:42;;;;;;;15.07;2.70;;;6.00;99.90;;;;;;4943544;28;20261;-68
2022/02/22 08:44:10;;;;;;;12.82;3.25;;;6.10;99.90;;;;;;4937059;29;20213;-67
2022/02/22 08:46:37;;;;;;;10.55;2.70;;;6.20;99.90;;;;;;4938422;29;20214;-69
2022/02/22 08:49:04;;;;;;;9.25;3.03;;;6.20;99.90;;;;;;4950531;29;20197;-68
2022/02/22 08:51:30;;;;;;;9.32;3.58;;;6.30;99.90;;;;;;4953868;28;20305;-68
2022/02/22 08:53:57;;;;;;;12.90;2.58;;;6.30;99.90;;;;;;4949480;28;20217;-70
2022/02/22 08:56:24;;;;;;;9.75;3.25;;;6.30;99.90;;;;;;4944447;29;20214;-68
2022/02/22 08:58:52;;;;;;;4.90;1.92;;;6.30;99.90;;;;;;4951955;28;20325;-69
2022/02/22 09:01:20;;;;;;;8.25;2.58;;;6.30;99.90;;;;;;4948103;28;20296;-68
2022/02/22 09:03:47;;;;;;;7.20;2.72;;;6.30;99.90;;;;;;4954216;28;20209;-69
2022/02/22 09:06:14;;;;;;;13.93;2.72;;;6.40;99.90;;;;;;4948001;28;20214;-67
2022/02/22 09:08:41;;;;;;;10.18;3.65;;;6.50;99.90;;;;;;4935818;29;20206;-69
2022/02/22 09:11:07;;;;;;;6.88;2.45;;;6.60;99.90;;;;;;4934403;29;20333;-68
2022/02/22 09:13:34;;;;;;;8.18;2.30;;;6.60;99.90;;;;;;4934364;29;20702;-68
2022/02/22 09:16:02;;;;;;;15.00;3.20;;;6.70;99.90;;;;;;4946538;29;20543;-68
2022/02/22 09:18:28;;;;;;;10.07;3.58;;;6.60;99.90;;;;;;4953552;28;20221;-68
2022/02/22 09:20:55;;;;;;;12.52;3.50;;;6.70;99.90;;;;;;4946878;28;20683;-68
2022/02/22 09:23:22;;;;;;;11.13;3.15;;;6.70;99.90;;;;;;4952592;28;20201;-68
2022/02/22 09:25:49;;;;;;;11.77;3.20;;;6.70;99.90;;;;;;4942354;28;20269;-68
2022/02/22 09:28:15;;;;;;;6.45;2.05;;;6.70;99.90;;;;;;4934973;29;20259;-68
2022/02/22 09:30:42;;;;;;;7.07;2.75;;;6.70;99.90;;;;;;4934282;29;20229;-68
2022/02/22 09:33:10;;;;;;;6.95;2.63;;;6.80;99.90;;;;;;4935196;29;20213;-68
2022/02/22 09:35:37;;;;;;;8.68;2.95;;;6.80;99.90;;;;;;4934428;29;20237;-68
2022/02/22 09:38:04;;;;;;;15.70;2.75;;;6.90;99.90;;;;;;4939406;29;20670;-68
2022/02/22 09:40:31;;;;;;;11.93;3.08;;;6.90;99.90;;;;;;4949160;28;20350;-68
2022/02/22 09:42:59;;;;;;;8.68;3.58;;;7.00;99.90;;;;;;4944018;29;20205;-68
2022/02/22 09:45:26;;;;;;;7.70;2.92;;;7.10;99.90;;;;;;4938100;29;20214;-68
2022/02/22 09:47:55;;;;;;;4.10;2.45;;;7.10;99.90;;;;;;4936167;29;20205;-68
2022/02/22 09:50:23;;;;;;;9.57;2.22;;;7.00;99.90;;;;;;4934104;29;20269;-68
2022/02/22 09:52:50;;;;;;;14.60;2.75;;;7.10;99.90;;;;;;4943933;29;20205;-68
2022/02/22 09:55:18;;;;;;;13.13;3.58;;;7.00;99.90;;;;;;4949184;28;20221;-67
2022/02/22 09:57:44;;;;;;;9.25;2.22;;;7.10;99.90;;;;;;4945876;28;20302;-67
2022/02/22 10:00:22;;;;;;;11.75;3.15;;;7.10;99.90;;;;;;4952447;28;20822;-67
2022/02/22 10:02:49;;;;;;;10.45;2.47;;;7.10;99.90;;;;;;4934328;28;20204;-67
2022/02/22 10:05:18;;;;;;;5.60;2.95;;;7.30;99.90;;;;;;4935588;29;20221;-67
2022/02/22 10:07:48;;;;;;;15.98;3.70;;;7.30;99.90;;;;;;4952856;28;20216;-67
2022/02/22 10:10:15;;;;;;;16.70;2.70;;;7.40;99.90;;;;;;4937421;28;20206;-67
2022/02/22 10:12:42;;;;;;;9.82;3.47;;;7.40;99.90;;;;;;4940658;29;20260;-67
2022/02/22 10:15:10;;;;;;;14.25;2.55;;;7.40;99.90;;;;;;4938921;28;20210;-67
2022/02/22 10:17:37;;;;;;;8.75;2.70;;;7.40;99.90;;;;;;4933268;29;20206;-67
2022/02/22 10:20:06;;;;;;;7.32;2.17;;;7.50;99.90;;;;;;4945566;29;20288;-67
2022/02/22 10:22:33;;;;;;;19.80;4.20;;;7.60;99.90;;;;;;4946803;28;20217;-66
2022/02/22 10:25:07;;;;;;;14.15;2.72;;;7.70;99.90;;;;;;4944340;29;20674;-68
2022/02/22 10:27:44;;;;;;;8.05;2.95;;;7.60;99.90;;;;;;4952458;28;20264;-67
2022/02/22 10:30:28;;;;;;;10.82;2.28;;;7.60;99.90;;;;;;4940622;28;20208;-66
2022/02/22 10:32:55;;;;;;;7.35;2.42;;;7.70;99.90;;;;;;4943926;29;20253;-67
2022/02/22 10:35:33;;;;;;;11.10;3.17;;;7.70;99.90;;;;;;4939817;28;20210;-67
2022/02/22 10:38:11;;;;;;;9.77;3.10;;;7.70;99.90;;;;;;4936159;29;20217;-67
2022/02/22 10:40:41;;;;;;;11.00;3.15;;;7.80;99.90;;;;;;4934651;29;20237;-67
2022/02/22 10:43:08;;;;;;;5.75;2.70;;;7.80;99.90;;;;;;4944588;29;20224;-67
2022/02/22 10:45:35;;;;;;;7.47;2.42;;;7.90;99.90;;;;;;4951750;28;20209;-68
2022/02/22 10:48:01;;;;;;;10.93;2.90;;;8.00;99.90;;;;;;4952290;28;20213;-67
2022/02/22 10:50:31;;;;;;;6.18;1.98;;;8.00;99.90;;;;;;4952353;28;20351;-67
2022/02/22 10:52:58;;;;;;;10.10;2.30;;;8.00;99.90;;;;;;4953519;28;20197;-67
2022/02/22 10:55:25;;;;;;;10.57;3.33;;;8.00;99.90;;;;;;4955912;28;20217;-66
2022/02/22 10:57:53;;;;;;;7.00;2.30;;;8.00;99.90;;;;;;4956154;28;20216;-67
2022/02/22 11:00:21;;;;;;;9.35;1.90;;;8.00;99.90;;;;;;4955418;28;20224;-68
2022/02/22 11:02:48;;;;;;;9.38;1.95;;;8.00;99.90;;;;;;4948802;28;20208;-67
2022/02/22 11:05:14;;;;;;;15.80;3.95;;;8.00;99.90;;;;;;4936726;29;20689;-70
2022/02/22 11:07:42;;;;;;;6.57;2.83;;;7.90;99.90;;;;;;4936738;29;20608;-68
2022/02/22 11:10:10;;;;;;;8.02;2.95;;;8.00;99.90;;;;;;4936743;29;20206;-67
2022/02/22 11:12:41;;;;;;;10.02;2.40;;;8.00;99.90;;;;;;4944129;29;20205;-68
2022/02/22 11:15:12;;;;;;;5.82;2.78;;;8.10;99.90;;;;;;4960817;28;20209;-68
2022/02/22 11:17:49;;;;;;;4.10;1.90;;;8.20;99.90;;;;;;4960759;28;20216;-69
2022/02/22 11:20:27;;;;;;;3.15;1.85;;;8.30;99.90;;;;;;4951677;28;20229;-69
2022/02/22 11:22:58;;;;;;;9.45;2.90;;;8.30;99.90;;;;;;4955221;28;20225;-68
2022/02/22 11:25:31;;;;;;;9.48;2.67;;;8.40;99.90;;;;;;4955667;28;20267;-68
2022/02/22 11:28:03;;;;;;;6.40;2.15;;;8.50;99.90;;;;;;4955770;28;20225;-68
2022/02/22 11:30:32;;;;;;;10.32;3.30;;;8.60;99.90;;;;;;4954787;28;21036;-69
2022/02/22 11:33:01;;;;;;;8.30;3.55;;;8.70;99.90;;;;;;4947121;28;20208;-69
2022/02/22 11:35:29;;;;;;;3.40;1.90;;;8.70;99.90;;;;;;4947983;28;20674;-68
2022/02/22 11:38:08;;;;;;;4.55;2.28;;;8.70;99.90;;;;;;4955271;28;20213;-69
2022/02/22 11:40:36;;;;;;;8.57;1.95;;;8.70;99.90;;;;;;4954810;28;20233;-68
2022/02/22 11:43:06;;;;;;;5.63;2.05;;;8.60;99.90;;;;;;4954392;28;20204;-68
2022/02/22 11:45:35;;;;;;;5.43;1.98;;;8.60;99.90;;;;;;4955010;28;20212;-68
2022/02/22 11:48:16;;;;;;;6.40;2.65;;;8.50;99.90;;;;;;4954467;28;20248;-68
2022/02/22 11:50:43;;;;;;;6.10;2.20;;;8.50;99.90;;;;;;4954703;28;20272;-68
2022/02/22 11:53:12;;;;;;;6.45;2.70;;;8.50;99.90;;;;;;4946252;28;20269;-68
2022/02/22 11:55:39;;;;;;;11.23;3.47;;;8.50;99.90;;;;;;4942084;29;20538;-68
2022/02/22 11:58:13;;;;;;;5.22;2.15;;;8.60;99.90;;;;;;4954677;28;20272;-66
2022/02/22 12:00:41;;;;;;;7.15;3.35;;;8.70;99.90;;;;;;4951163;28;20647;-67
2022/02/22 12:03:09;;;;;;;5.43;2.33;;;8.70;99.90;;;;;;4946700;29;20211;-67
2022/02/22 12:05:39;;;;;;;2.15;1.98;;;8.60;99.90;;;;;;4951815;28;20201;-67
2022/02/22 12:08:07;;;;;;;6.95;2.55;;;8.60;99.90;;;;;;4942231;29;20582;-67
2022/02/22 12:10:44;;;;;;;5.20;2.38;;;8.70;99.90;;;;;;4953669;29;20232;-67
2022/02/22 12:13:13;;;;;;;4.35;2.13;;;8.70;99.90;;;;;;4954235;28;20209;-67
2022/02/22 12:15:41;;;;;;;10.50;3.65;;;8.80;99.90;;;;;;4954180;28;20224;-67
2022/02/22 12:18:18;;;;;;;7.07;2.35;;;8.80;99.90;;;;;;4954115;28;20216;-67
2022/02/22 12:20:46;;;;;;;4.00;2.72;;;8.80;99.90;;;;;;4954037;28;20258;-67
2022/02/22 12:23:17;;;;;;;5.38;2.25;;;8.80;99.90;;;;;;4952490;28;20576;-68
2022/02/22 12:25:44;;;;;;;8.90;2.95;;;8.80;99.90;;;;;;4945975;28;20268;-68
2022/02/22 12:28:11;;;;;;;4.20;2.00;;;8.80;99.90;;;;;;4947590;28;20244;-68
2022/02/22 12:30:41;;;;;;;6.18;2.50;;;8.80;99.90;;;;;;4953778;28;20233;-67
2022/02/22 12:33:08;;;;;;;10.55;2.63;;;8.90;99.90;;;;;;4946540;28;20221;-67
2022/02/22 12:35:37;;;;;;;8.05;2.30;;;9.00;99.90;;;;;;4949783;28;20818;-69
2022/02/22 12:38:13;;;;;;;6.95;2.78;;;9.00;99.90;;;;;;4952054;28;20248;-68
2022/02/22 12:40:39;;;;;;;2.85;2.00;;;9.00;99.90;;;;;;4934540;29;20233;-68
2022/02/22 12:43:07;;;;;;;7.68;2.08;;;8.90;99.90;;;;;;4942512;28;20202;-68
2022/02/22 12:45:39;;;;;;;4.80;2.25;;;8.80;99.90;;;;;;4949674;29;20224;-68
2022/02/22 12:48:08;;;;;;;10.02;3.15;;;8.70;99.90;;;;;;4942556;29;20208;-68
2022/02/22 12:50:36;;;;;;;6.35;2.85;;;8.70;99.90;;;;;;4960277;28;20221;-68
2022/02/22 12:53:03;;;;;;;6.00;1.98;;;8.70;99.90;;;;;;4953790;28;20627;-68
2022/02/22 12:55:30;;;;;;;9.10;2.65;;;8.70;99.90;;;;;;4951174;28;20615;-69
2022/02/22 12:58:07;;;;;;;8.25;2.85;;;8.70;99.90;;;;;;4948222;28;20198;-68
2022/02/22 13:00:34;;;;;;;7.32;2.53;;;8.70;99.90;;;;;;4946276;28;20286;-68
2022/02/22 13:03:10;;;;;;;5.25;4.05;;;8.60;99.90;;;;;;4958751;28;20265;-67
2022/02/22 13:05:39;;;;;;;7.03;1.58;;;8.60;99.90;;;;;;4950244;28;20208;-67
2022/02/22 13:08:07;;;;;;;7.55;2.13;;;8.60;99.90;;;;;;4955091;28;20292;-68
2022/02/22 13:10:42;;;;;;;10.07;7.50;;;8.50;99.90;;;;;;4949997;28;20700;-70
2022/02/22 13:13:10;;;;;;;5.55;2.53;;;8.50;99.90;;;;;;4951938;28;20213;-67
2022/02/22 13:15:36;;;;;;;2.35;1.95;;;8.50;99.90;;;;;;4948840;28;20630;-68
2022/02/22 13:18:15;;;;;;;3.50;2.00;;;8.50;99.90;;;;;;4946728;28;20236;-68
2022/02/22 13:20:43;;;;;;;7.30;3.17;;;8.50;99.90;;;;;;4942269;29;20417;-67
2022/02/22 13:23:12;;;;;;;9.32;2.50;;;8.50;99.90;;;;;;4947714;29;20217;-68
2022/02/22 13:25:39;;;;;;;13.15;2.75;;;8.50;99.90;;;;;;4953428;28;20220;-68
2022/02/22 13:28:07;;;;;;;7.00;3.17;;;8.50;99.90;;;;;;4941333;28;20263;-67
2022/02/22 13:30:35;;;;;;;5.63;3.50;;;8.50;99.90;;;;;;4934194;29;20715;-69
2022/02/22 13:33:07;;;;;;;9.68;3.65;;;8.50;99.90;;;;;;4952368;29;20393;-68
2022/02/22 13:35:36;;;;;;;3.53;2.85;;;8.50;99.90;;;;;;4953556;28;20209;-68
2022/02/22 13:38:03;;;;;;;5.90;3.17;;;8.60;99.90;;;;;;4935761;28;20213;-69
2022/02/22 13:40:33;;;;;;;15.43;3.78;;;8.50;99.90;;;;;;4947707;29;20252;-69
2022/02/22 13:43:01;;;;;;;4.15;2.20;;;8.50;99.90;;;;;;4952184;28;20341;-68
2022/02/22 13:45:30;;;;;;;7.15;2.40;;;8.50;99.90;;;;;;4952851;28;20209;-68
2022/02/22 13:48:00;;;;;;;7.00;2.30;;;8.50;99.90;;;;;;4936813;28;20210;-68
2022/02/22 13:50:27;;;;;;;6.63;3.75;;;8.50;99.90;;;;;;4941785;29;20212;-68
2022/02/22 13:52:57;;;;;;;8.57;2.40;;;8.50;99.90;;;;;;4951443;28;20209;-68
2022/02/22 13:55:24;;;;;;;8.85;2.50;;;8.60;99.90;;;;;;4952029;28;20307;-68
2022/02/22 13:57:58;;;;;;;6.15;2.00;;;8.70;99.90;;;;;;4947664;28;20580;-67
2022/02/22 14:00:25;;;;;;;4.05;2.10;;;8.80;99.90;;;;;;4953586;28;20222;-68
2022/02/22 14:02:59;;;;;;;11.38;3.35;;;8.80;99.90;;;;;;4942831;29;20205;-68
2022/02/22 14:05:26;;;;;;;4.50;3.28;;;8.80;99.90;;;;;;4947702;29;20205;-68
2022/02/22 14:07:54;;;;;;;5.28;2.75;;;8.90;99.90;;;;;;4952921;28;20213;-68
2022/02/22 14:10:21;;;;;;;6.57;2.88;;;8.90;99.90;;;;;;4948959;29;20201;-68
2022/02/22 14:12:48;;;;;;;6.68;3.63;;;8.90;99.90;;;;;;4952750;28;20217;-67
2022/02/22 14:15:16;;;;;;;7.35;3.97;;;8.90;99.90;;;;;;4951456;28;20217;-68
2022/02/22 14:17:44;;;;;;;6.22;2.40;;;8.90;99.90;;;;;;4952283;28;20308;-70
2022/02/22 14:20:12;;;;;;;8.27;2.42;;;8.80;99.90;;;;;;4936680;28;20221;-68
2022/02/22 14:22:40;;;;;;;8.40;2.33;;;8.80;99.90;;;;;;4933246;29;20214;-68
2022/02/22 14:25:10;;;;;;;4.93;4.00;;;8.70;99.90;;;;;;4952010;29;20205;-68
2022/02/22 14:27:36;;;;;;;9.75;3.60;;;8.70;99.90;;;;;;4951758;28;20209;-68
2022/02/22 14:30:04;;;;;;;11.80;3.10;;;8.70;99.90;;;;;;4946358;28;20213;-67
2022/02/22 14:32:32;;;;;;;8.07;1.92;;;8.60;99.90;;;;;;4940193;29;20280;-69
2022/02/22 14:34:59;;;;;;;7.07;4.28;;;8.60;99.90;;;;;;4948199;29;20209;-69
2022/02/22 14:37:26;;;;;;;8.75;3.92;;;8.60;99.90;;;;;;4951454;28;20295;-66
2022/02/22 14:39:53;;;;;;;6.00;3.97;;;8.60;99.90;;;;;;4933610;28;20222;-69
2022/02/22 14:42:21;;;;;;;8.57;3.13;;;8.60;99.90;;;;;;4941275;29;20721;-67
2022/02/22 14:44:48;;;;;;;2.80;2.45;;;8.60;99.90;;;;;;4950747;28;20228;-67
2022/02/22 14:47:15;;;;;;;9.90;3.38;;;8.60;99.90;;;;;;4932360;29;20293;-68
2022/02/22 14:49:42;;;;;;;7.53;3.50;;;8.50;99.90;;;;;;4934814;29;20206;-68
2022/02/22 14:52:08;;;;;;;3.83;2.33;;;8.40;99.90;;;;;;4942262;28;20260;-68
2022/02/22 14:54:35;;;;;;;7.97;3.30;;;8.30;99.90;;;;;;4947520;28;20208;-68
2022/02/22 14:57:02;;;;;;;6.40;2.60;;;8.20;99.90;;;;;;4954516;28;20648;-68
2022/02/22 14:59:30;;;;;;;7.85;3.40;;;8.20;99.90;;;;;;4965915;28;20272;-69
2022/02/22 15:01:57;;;;;;;10.93;3.15;;;8.10;99.90;;;;;;4964433;28;20306;-69
2022/02/22 15:04:23;;;;;;;9.52;3.28;;;8.10;99.90;;;;;;4943247;28;20210;-68
2022/02/22 15:06:50;;;;;;;4.68;2.63;;;8.00;99.90;;;;;;4952510;28;20205;-68
2022/02/22 15:09:18;;;;;;;5.93;3.13;;;8.00;99.90;;;;;;4960444;28;20228;-69
2022/02/22 15:11:46;;;;;;;12.55;4.60;;;7.90;99.90;;;;;;4956513;28;20248;-68
2022/02/22 15:14:12;;;;;;;5.63;3.40;;;7.80;99.90;;;;;;4952100;28;20300;-68
2022/02/22 15:16:41;;;;;;;7.30;3.22;;;7.80;99.90;;;;;;4951048;28;20768;-69
2022/02/22 15:19:07;;;;;;;16.67;5.10;;;7.80;99.90;;;;;;4943942;28;20206;-68
2022/02/22 15:21:34;;;;;;;7.07;3.45;;;7.80;99.90;;;;;;4951488;28;20340;-66
2022/02/22 15:24:01;;;;;;;11.90;3.38;;;7.70;99.90;;;;;;4947412;28;20198;-67
2022/02/22 15:26:27;;;;;;;7.97;4.05;;;7.70;99.90;;;;;;4953799;28;20344;-67
2022/02/22 15:28:54;;;;;;;9.77;5.28;;;7.60;99.90;;;;;;4962499;28;20201;-67
2022/02/22 15:31:21;;;;;;;6.53;3.13;;;7.60;99.90;;;;;;4957988;28;20284;-66
2022/02/22 15:33:49;;;;;;;10.15;2.42;;;7.50;99.90;;;;;;4952362;28;20201;-66
2022/02/22 15:36:17;;;;;;;6.10;2.55;;;7.40;99.90;;;;;;4965494;28;20289;-67
2022/02/22 15:38:44;;;;;;;5.05;2.97;;;7.40;99.90;;;;;;4960913;28;20231;-67
2022/02/22 15:41:11;;;;;;;5.72;3.15;;;7.40;99.90;;;;;;4954738;28;20245;-67
2022/02/22 15:43:38;;;;;;;15.32;9.38;;;7.40;99.90;;;;;;4956127;28;20208;-67
2022/02/22 15:46:06;;;;;;;15.35;7.95;;;7.30;99.90;;;;;;4946666;28;20198;-67
2022/02/22 15:48:32;;;;;;;12.48;8.52;;;7.30;99.90;;;;;;4943137;28;20214;-67
2022/02/22 15:51:00;;;;;;;8.45;5.45;;;7.30;99.90;;;;;;4936685;28;20237;-67
2022/02/22 15:53:28;;;;;;;6.07;5.20;;;7.20;99.90;;;;;;4949517;28;20646;-67
2022/02/22 15:55:55;;;;;;;10.52;5.20;;;7.20;99.90;;;;;;4951125;28;20307;-67
2022/02/22 15:58:22;;;;;;;7.38;4.80;;;7.20;99.90;;;;;;4943483;28;20209;-67
2022/02/22 16:00:49;;;;;;;6.38;4.72;;;7.20;99.90;;;;;;4963845;28;20232;-68
2022/02/22 16:03:16;;;;;;;12.05;5.03;;;7.10;99.90;;;;;;4952217;28;20220;-67
2022/02/22 16:05:43;;;;;;;7.22;5.25;;;7.10;99.90;;;;;;4935294;29;20651;-67
2022/02/22 16:08:11;;;;;;;6.47;4.22;;;7.10;99.90;;;;;;4936006;29;20675;-68
2022/02/22 16:10:37;;;;;;;10.85;7.70;;;7.00;99.90;;;;;;4953689;29;20630;-68
2022/02/22 16:13:04;;;;;;;10.35;8.70;;;7.00;99.90;;;;;;4945286;28;20214;-67
2022/02/22 16:15:31;;;;;;;7.88;5.05;;;6.90;99.90;;;;;;4935204;29;20253;-68
2022/02/22 16:17:58;;;;;;;11.77;5.70;;;6.90;99.90;;;;;;4942229;28;20551;-68
2022/02/22 16:20:26;;;;;;;11.77;6.15;;;6.80;99.90;;;;;;4953919;28;20288;-67
2022/02/22 16:22:53;;;;;;;12.73;8.13;;;6.80;99.90;;;;;;4948226;28;20236;-67
2022/02/22 16:25:21;;;;;;;20.15;11.43;;;6.80;99.90;;;;;;4965229;28;20218;-68
2022/02/22 16:27:48;;;;;;;7.70;5.00;;;6.70;99.90;;;;;;4947206;28;20674;-68
2022/02/22 16:30:15;;;;;;;8.00;5.95;;;6.70;99.90;;;;;;4936184;28;20203;-68
2022/02/22 16:32:42;;;;;;;7.70;5.78;;;6.70;99.90;;;;;;4934779;29;20257;-68
2022/02/22 16:35:09;;;;;;;11.98;5.78;;;6.70;99.90;;;;;;4937699;29;20205;-68
2022/02/22 16:37:37;;;;;;;9.80;7.15;;;6.70;99.90;;;;;;4954285;28;20205;-68
2022/02/22 16:40:05;;;;;;;10.50;6.38;;;6.70;99.90;;;;;;4945766;28;20216;-68
2022/02/22 16:42:33;;;;;;;12.50;6.88;;;6.70;99.90;;;;;;4959192;28;20275;-68
2022/02/22 16:45:00;;;;;;;14.23;8.45;;;6.70;99.90;;;;;;4970106;28;20223;-68
2022/02/22 16:47:27;;;;;;;6.22;5.65;;;6.70;99.90;;;;;;4941593;28;20205;-67
2022/02/22 16:49:54;;;;;;;5.53;5.03;;;6.70;99.90;;;;;;4960509;28;20548;-68
2022/02/22 16:52:22;;;;;;;5.70;4.95;;;6.70;99.90;;;;;;4973152;28;20258;-68
2022/02/22 16:54:48;;;;;;;8.52;6.75;;;6.70;99.90;;;;;;4955717;28;20204;-68
2022/02/22 16:57:15;;;;;;;15.70;10.40;;;6.70;99.90;;;;;;4959254;28;20256;-68
2022/02/22 16:59:43;;;;;;;7.90;6.63;;;6.70;99.90;;;;;;4958159;28;20256;-67
2022/02/22 17:02:10;;;;;;;5.97;4.97;;;6.70;99.90;;;;;;4951891;28;20602;-68
2022/02/22 17:04:38;;;;;;;8.52;7.65;;;6.70;99.90;;;;;;4969797;28;20208;-68
2022/02/22 17:07:05;;;;;;;8.05;7.25;;;6.70;99.90;;;;;;4962378;28;20206;-67
2022/02/22 17:09:32;;;;;;;11.52;9.35;;;6.70;99.90;;;;;;4968534;28;20267;-67
2022/02/22 17:11:59;;;;;;;16.27;8.27;;;6.70;99.90;;;;;;4958378;28;20240;-68
2022/02/22 17:14:25;;;;;;;17.27;9.45;;;6.70;99.90;;;;;;4970408;28;20213;-68
2022/02/22 17:16:53;;;;;;;15.65;10.00;;;6.70;99.90;;;;;;4958095;28;20205;-67
2022/02/22 17:19:20;;;;;;;29.30;18.83;;;6.70;99.90;;;;;;4958035;28;20217;-67
2022/02/22 17:21:47;;;;;;;16.80;10.27;;;6.70;99.90;;;;;;4948087;28;20259;-67
2022/02/22 17:24:14;;;;;;;8.25;7.45;;;6.80;99.90;;;;;;4960845;28;20651;-67
2022/02/22 17:26:40;;;;;;;16.23;9.45;;;6.80;99.90;;;;;;4960754;28;20255;-67
2022/02/22 17:29:12;;;;;;;13.32;8.63;;;6.80;99.90;;;;;;4968431;28;20261;-69
2022/02/22 17:31:39;;;;;;;20.02;10.82;;;6.80;99.90;;;;;;4952997;28;20698;-68
2022/02/22 17:34:07;;;;;;;9.18;7.75;;;6.80;99.90;;;;;;4953221;28;20250;-66
2022/02/22 17:36:34;;;;;;;8.80;7.65;;;6.90;99.90;;;;;;4954257;28;20208;-66
2022/02/22 17:39:01;;;;;;;9.05;6.68;;;6.90;99.90;;;;;;4953169;28;20209;-67
2022/02/22 17:41:28;;;;;;;11.77;7.95;;;6.90;99.90;;;;;;4953762;28;20225;-67
2022/02/22 17:43:54;;;;;;;9.20;8.30;;;6.90;99.90;;;;;;4952680;28;20697;-67
2022/02/22 17:46:21;;;;;;;11.30;8.05;;;6.90;99.90;;;;;;4957278;28;20212;-67
2022/02/22 17:48:48;;;;;;;7.15;6.55;;;6.90;99.90;;;;;;4955843;28;20739;-67
2022/02/22 17:51:16;;;;;;;13.48;7.60;;;6.90;99.90;;;;;;4952253;28;20280;-67
2022/02/22 17:53:43;;;;;;;12.73;9.45;;;6.90;99.90;;;;;;4963711;28;20200;-68
2022/02/22 17:56:11;;;;;;;9.70;6.85;;;6.90;99.90;;;;;;4971744;28;20259;-68